createdAt,value
2022-08-04T00:02:44.933Z,6.23
2022-08-04T00:05:31.010Z,6.43
2022-08-04T00:08:23.604Z,6.73
2022-08-04T00:11:15.320Z,6.17
2022-08-04T00:14:07.340Z,7.30
2022-08-04T00:16:54.680Z,6.10
2022-08-04T00:19:45.553Z,6.47
2022-08-04T00:22:32.488Z,6.57
2022-08-04T00:25:18.241Z,6.53
2022-08-04T00:28:04.253Z,6.10
2022-08-04T00:30:50.325Z,5.97
2022-08-04T00:33:38.325Z,6.43
2022-08-04T00:36:25.558Z,5.83
2022-08-04T00:39:15.141Z,5.83
2022-08-04T00:42:04.670Z,6.60
2022-08-04T00:45:09.199Z,6.23
2022-08-04T00:48:03.952Z,6.40
2022-08-04T00:50:59.961Z,6.47
2022-08-04T00:54:04.854Z,6.27
2022-08-04T00:57:29.872Z,6.60
2022-08-04T01:00:17.994Z,6.40
2022-08-04T01:03:23.833Z,6.97
2022-08-04T01:06:32.807Z,6.50
2022-08-04T01:09:21.331Z,6.23
2022-08-04T01:12:07.686Z,6.87
2022-08-04T01:15:02.605Z,6.30
2022-08-04T01:17:55.026Z,6.50
2022-08-04T01:21:07.458Z,6.13
2022-08-04T01:24:12.269Z,6.20
2022-08-04T01:27:03.991Z,6.33
2022-08-04T01:29:56.605Z,6.30
2022-08-04T01:32:49.387Z,6.10
2022-08-04T01:35:48.473Z,5.90
2022-08-04T01:38:34.699Z,6.33
2022-08-04T01:41:32.206Z,5.63
2022-08-04T01:44:18.943Z,5.70
2022-08-04T01:47:05.012Z,5.93
2022-08-04T01:49:51.762Z,6.03
2022-08-04T01:52:39.095Z,6.70
2022-08-04T01:55:54.517Z,6.10
2022-08-04T01:58:33.609Z,5.50
2022-08-04T02:01:19.590Z,5.50
2022-08-04T02:04:18.619Z,5.50
2022-08-04T02:07:20.845Z,6.20
2022-08-04T02:10:08.379Z,6.20
2022-08-04T02:13:00.250Z,5.53
2022-08-04T02:15:46.751Z,5.80
2022-08-04T02:18:35.940Z,5.17
2022-08-04T02:21:26.190Z,5.07
2022-08-04T02:24:16.951Z,5.90
2022-08-04T02:27:03.913Z,5.40
2022-08-04T02:29:57.479Z,7.37
2022-08-04T02:32:44.332Z,6.20
2022-08-04T02:35:35.544Z,6.40
2022-08-04T02:38:28.312Z,5.83
2022-08-04T02:41:16.819Z,5.80
2022-08-04T02:44:03.912Z,6.30
2022-08-04T02:46:52.417Z,5.90
2022-08-04T02:49:39.157Z,5.50
2022-08-04T02:52:27.476Z,5.73
2022-08-04T02:55:14.625Z,5.93
2022-08-04T02:58:02.666Z,6.03
2022-08-04T03:00:51.970Z,6.50
2022-08-04T03:03:52.289Z,6.87
2022-08-04T03:06:50.204Z,6.40
2022-08-04T03:09:54.869Z,5.80
2022-08-04T03:13:00.076Z,5.63
2022-08-04T03:16:04.784Z,5.13
2022-08-04T03:19:09.241Z,6.07
2022-08-04T03:22:10.304Z,5.90
2022-08-04T03:25:02.542Z,5.90
2022-08-04T03:28:02.151Z,5.93
2022-08-04T03:30:54.185Z,6.33
2022-08-04T03:33:52.576Z,6.50
2022-08-04T03:36:54.101Z,6.30
2022-08-04T03:40:10.586Z,6.70
2022-08-04T03:43:59.410Z,6.53
2022-08-04T03:46:47.813Z,6.30
2022-08-04T03:49:52.506Z,5.43
2022-08-04T03:53:09.166Z,6.10
2022-08-04T03:55:54.734Z,6.27
2022-08-04T03:58:59.416Z,6.53
2022-08-04T04:02:06.701Z,6.17
2022-08-04T04:05:11.899Z,6.77
2022-08-04T04:08:19.124Z,6.30
2022-08-04T04:11:05.354Z,6.73
2022-08-04T04:14:10.865Z,6.50
2022-08-04T04:17:09.381Z,7.10
2022-08-04T04:20:04.427Z,7.20
2022-08-04T04:23:08.940Z,7.20
2022-08-04T04:26:16.683Z,6.83
2022-08-04T04:29:17.925Z,7.20
2022-08-04T04:32:06.887Z,6.67
2022-08-04T04:34:55.742Z,7.83
2022-08-04T04:37:50.817Z,7.20
2022-08-04T04:40:36.830Z,7.10
2022-08-04T04:43:51.071Z,7.03
2022-08-04T04:46:41.170Z,7.53
2022-08-04T04:49:50.375Z,5.97
2022-08-04T04:52:42.902Z,7.37
2022-08-04T04:55:33.307Z,7.33
2022-08-04T04:58:20.135Z,6.73
2022-08-04T05:01:19.347Z,6.77
2022-08-04T05:04:12.854Z,6.10
2022-08-04T05:07:17.645Z,7.37
2022-08-04T05:10:20.775Z,6.80
2022-08-04T05:14:36.277Z,7.47
2022-08-04T05:16:36.752Z,7.57
2022-08-04T05:19:22.322Z,6.90
2022-08-04T05:22:14.394Z,7.10
2022-08-04T05:25:03.647Z,7.30
2022-08-04T05:27:56.956Z,7.40
2022-08-04T05:30:50.502Z,7.00
2022-08-04T05:33:55.112Z,7.10
2022-08-04T05:36:43.568Z,6.70
2022-08-04T05:39:34.313Z,7.33
2022-08-04T05:42:21.735Z,6.70
2022-08-04T05:45:10.139Z,7.17
2022-08-04T05:47:55.905Z,6.30
2022-08-04T05:50:41.787Z,6.10
2022-08-04T05:53:30.085Z,5.60
2022-08-04T05:56:16.161Z,6.00
2022-08-04T05:59:03.677Z,6.00
2022-08-04T06:01:54.930Z,6.17
2022-08-04T06:04:43.283Z,5.70
2022-08-04T06:07:31.525Z,6.13
2022-08-04T06:10:17.613Z,6.30
2022-08-04T06:13:08.873Z,6.27
2022-08-04T06:16:28.971Z,6.33
2022-08-04T06:20:03.367Z,6.20
2022-08-04T06:22:24.724Z,6.33
2022-08-04T06:25:13.279Z,6.97
2022-08-04T06:27:59.831Z,5.93
2022-08-04T06:30:47.819Z,6.23
2022-08-04T06:33:54.165Z,7.50
2022-08-04T06:36:41.078Z,6.10
2022-08-04T06:39:28.651Z,6.67
2022-08-04T06:42:15.103Z,6.30
2022-08-04T06:45:10.668Z,7.07
2022-08-04T06:47:56.853Z,6.67
2022-08-04T06:51:28.745Z,7.13
2022-08-04T06:53:52.267Z,6.83
2022-08-04T06:56:40.151Z,7.70
2022-08-04T06:59:26.923Z,7.23
2022-08-04T07:02:17.608Z,8.63
2022-08-04T07:05:07.632Z,6.73
2022-08-04T07:07:58.069Z,7.63
2022-08-04T07:10:45.224Z,6.63
2022-08-04T07:13:32.231Z,6.87
2022-08-04T07:16:20.630Z,7.67
2022-08-04T07:19:19.097Z,7.07
2022-08-04T07:22:25.002Z,7.20
2022-08-04T07:25:13.157Z,7.70
2022-08-04T07:28:00.094Z,7.37
2022-08-04T07:30:46.806Z,7.57
2022-08-04T07:33:33.119Z,7.53
2022-08-04T07:36:19.311Z,8.40
2022-08-04T07:39:06.037Z,8.60
2022-08-04T07:41:54.653Z,7.50
2022-08-04T07:44:40.520Z,7.63
2022-08-04T07:47:29.567Z,7.43
2022-08-04T07:50:16.859Z,7.20
2022-08-04T07:53:53.536Z,7.40
2022-08-04T07:56:09.475Z,7.27
2022-08-04T07:58:58.995Z,7.20
2022-08-04T08:01:44.895Z,7.27
2022-08-04T08:04:30.957Z,7.50
2022-08-04T08:07:17.118Z,7.90
2022-08-04T08:10:02.981Z,7.40
2022-08-04T08:12:51.077Z,7.00
2022-08-04T08:15:38.671Z,7.10
2022-08-04T08:18:25.113Z,6.57
2022-08-04T08:21:10.899Z,6.20
2022-08-04T08:23:58.896Z,6.70
2022-08-04T08:26:44.927Z,5.60
2022-08-04T08:29:33.527Z,6.00
2022-08-04T08:32:19.830Z,9.00
2022-08-04T08:35:05.539Z,6.57
2022-08-04T08:38:00.719Z,6.30
2022-08-04T08:40:56.975Z,5.63
2022-08-04T08:44:06.750Z,5.97
2022-08-04T08:47:05.070Z,6.27
2022-08-04T08:50:04.699Z,6.23
2022-08-04T08:53:09.423Z,6.33
2022-08-04T08:56:18.139Z,6.13
2022-08-04T08:59:22.376Z,6.33
2022-08-04T09:02:27.084Z,6.83
2022-08-04T09:05:21.886Z,6.63
2022-08-04T09:08:26.150Z,6.63
2022-08-04T09:11:34.986Z,6.53
2022-08-04T09:14:42.954Z,6.20
2022-08-04T09:17:31.043Z,6.60
2022-08-04T09:20:22.805Z,5.97
2022-08-04T09:23:08.510Z,6.43
2022-08-04T09:26:13.105Z,6.30
2022-08-04T09:29:05.254Z,5.90
2022-08-04T09:32:13.660Z,6.40
2022-08-04T09:35:14.923Z,6.93
2022-08-04T09:38:22.099Z,5.93
2022-08-04T09:41:20.887Z,6.17
2022-08-04T09:44:50.368Z,5.80
2022-08-04T09:47:40.323Z,6.67
2022-08-04T09:50:36.992Z,6.00
2022-08-04T09:53:42.372Z,6.40
2022-08-04T09:56:36.283Z,6.00
2022-08-04T09:59:28.051Z,6.10
2022-08-04T10:02:16.473Z,5.90
2022-08-04T10:05:03.918Z,5.70
2022-08-04T10:08:15.331Z,6.10
2022-08-04T10:11:35.595Z,5.80
2022-08-04T10:14:44.849Z,6.23
2022-08-04T10:17:51.774Z,6.10
2022-08-04T10:20:47.115Z,6.03
2022-08-04T10:23:55.394Z,5.93
2022-08-04T10:26:56.875Z,6.10
2022-08-04T10:29:49.575Z,5.90
2022-08-04T10:32:43.265Z,5.40
2022-08-04T10:35:33.447Z,6.00
2022-08-04T10:38:33.398Z,6.50
2022-08-04T10:41:25.434Z,5.20
2022-08-04T10:44:14.406Z,5.73
2022-08-04T10:47:03.374Z,5.63
2022-08-04T10:49:59.798Z,5.27
2022-08-04T10:52:48.749Z,6.10
2022-08-04T10:56:06.399Z,4.67
2022-08-04T10:58:48.918Z,5.40
2022-08-04T11:02:01.691Z,7.83
2022-08-04T11:04:57.135Z,4.30
2022-08-04T11:07:45.767Z,4.97
2022-08-04T11:10:37.883Z,5.47
2022-08-04T11:13:30.287Z,4.60
2022-08-04T11:16:28.594Z,5.57
2022-08-04T11:19:17.392Z,5.43
2022-08-04T11:22:07.654Z,5.20
2022-08-04T11:25:05.906Z,4.70
2022-08-04T11:27:55.080Z,5.20
2022-08-04T11:30:45.605Z,4.90
2022-08-04T11:33:51.200Z,5.10
2022-08-04T11:36:46.435Z,4.70
2022-08-04T11:39:58.546Z,4.70
2022-08-04T11:42:52.116Z,3.30
2022-08-04T11:45:53.833Z,4.03
2022-08-04T11:48:45.682Z,3.73
2022-08-04T11:51:32.759Z,4.80
2022-08-04T11:54:20.288Z,4.70
2022-08-04T11:57:06.224Z,3.90
2022-08-04T11:59:53.962Z,3.90
2022-08-04T12:02:58.699Z,4.33
2022-08-04T12:05:51.331Z,4.10
2022-08-04T12:08:38.019Z,3.50
2022-08-04T12:11:33.323Z,4.03
2022-08-04T12:14:22.718Z,3.50
2022-08-04T12:17:10.658Z,3.70
2022-08-04T12:20:04.120Z,3.60
2022-08-04T12:23:09.834Z,3.50
2022-08-04T12:25:59.541Z,3.40
2022-08-04T12:29:09.232Z,3.27
2022-08-04T12:31:57.736Z,3.30
2022-08-04T12:34:59.317Z,3.10
2022-08-04T12:38:05.435Z,3.50
2022-08-04T12:40:52.683Z,3.50
2022-08-04T12:43:39.158Z,3.00
2022-08-04T12:46:27.640Z,3.40
2022-08-04T12:49:14.546Z,3.03
2022-08-04T12:52:07.615Z,2.67
2022-08-04T12:54:57.106Z,2.40
2022-08-04T12:57:43.273Z,2.43
2022-08-04T13:00:43.924Z,3.10
2022-08-04T13:03:31.443Z,2.07
2022-08-04T13:06:23.367Z,2.57
2022-08-04T13:09:20.981Z,2.90
2022-08-04T13:12:12.327Z,3.40
2022-08-04T13:15:09.777Z,4.10
2022-08-04T13:17:59.666Z,4.10
2022-08-04T13:20:45.573Z,4.00
2022-08-04T13:24:09.235Z,4.97
2022-08-04T13:26:55.350Z,3.50
2022-08-04T13:29:59.769Z,3.53
2022-08-04T13:32:52.945Z,4.27
2022-08-04T13:35:55.857Z,3.30
2022-08-04T13:38:48.515Z,3.53
2022-08-04T13:41:35.302Z,4.03
2022-08-04T13:44:23.831Z,3.80
2022-08-04T13:47:14.581Z,3.93
2022-08-04T13:50:11.521Z,3.60
2022-08-04T13:52:58.717Z,4.20
2022-08-04T13:55:44.841Z,3.60
2022-08-04T13:58:31.508Z,4.00
2022-08-04T14:01:20.004Z,3.80
2022-08-04T14:04:16.973Z,4.70
2022-08-04T14:07:03.172Z,4.20
2022-08-04T14:10:03.055Z,4.03
2022-08-04T14:12:52.062Z,5.77
2022-08-04T14:16:00.962Z,4.00
2022-08-04T14:18:45.982Z,3.97
2022-08-04T14:21:37.569Z,3.40
2022-08-04T14:24:28.134Z,3.07
2022-08-04T14:27:13.930Z,3.50
2022-08-04T14:30:00.175Z,3.87
2022-08-04T14:32:59.654Z,3.57
2022-08-04T14:36:05.891Z,3.22
2022-08-04T14:39:00.924Z,3.78
2022-08-04T14:41:48.393Z,3.80
2022-08-04T14:44:52.572Z,3.28
2022-08-04T14:47:52.845Z,3.55
2022-08-04T14:50:40.353Z,3.42
2022-08-04T14:53:29.146Z,3.80
2022-08-04T14:56:37.465Z,3.83
2022-08-04T14:59:20.979Z,4.07
2022-08-04T15:02:07.248Z,3.42
2022-08-04T15:04:53.411Z,4.47
2022-08-04T15:07:39.633Z,3.67
2022-08-04T15:10:26.332Z,3.78
2022-08-04T15:13:14.210Z,3.70
2022-08-04T15:16:07.482Z,3.85
2022-08-04T15:18:56.949Z,3.40
2022-08-04T15:21:43.289Z,3.50
2022-08-04T15:24:28.951Z,4.13
2022-08-04T15:27:15.109Z,4.00
2022-08-04T15:30:03.029Z,3.80
2022-08-04T15:32:59.558Z,4.10
2022-08-04T15:35:46.578Z,3.83
2022-08-04T15:38:58.874Z,4.13
2022-08-04T15:41:54.759Z,3.90
2022-08-04T15:44:54.464Z,3.50
2022-08-04T15:47:49.976Z,3.97
2022-08-04T15:50:58.410Z,3.72
2022-08-04T15:54:02.277Z,3.67
2022-08-04T15:57:02.719Z,3.38
2022-08-04T16:00:02.791Z,3.80
2022-08-04T16:03:01.555Z,3.40
2022-08-04T16:05:47.291Z,3.97
2022-08-04T16:08:57.566Z,3.90
2022-08-04T16:11:43.966Z,3.95
2022-08-04T16:14:35.829Z,3.97
2022-08-04T16:17:21.930Z,3.80
2022-08-04T16:20:09.762Z,3.90
2022-08-04T16:22:59.340Z,3.55
2022-08-04T16:25:51.871Z,3.67
2022-08-04T16:28:40.881Z,3.70
2022-08-04T16:31:27.287Z,3.75
2022-08-04T16:34:39.460Z,3.65
2022-08-04T16:37:19.664Z,4.28
2022-08-04T16:40:34.690Z,4.20
2022-08-04T16:43:22.828Z,3.50
2022-08-04T16:46:18.366Z,3.28
2022-08-04T16:49:08.498Z,3.55
2022-08-04T16:51:55.273Z,3.33
2022-08-04T16:54:41.168Z,3.30
2022-08-04T16:57:27.620Z,3.85
2022-08-04T17:00:13.535Z,3.63
2022-08-04T17:03:03.829Z,3.42
2022-08-04T17:05:50.793Z,3.70
2022-08-04T17:08:43.001Z,3.35
2022-08-04T17:11:35.360Z,4.95
2022-08-04T17:14:27.680Z,4.15
2022-08-04T17:17:13.755Z,4.60
2022-08-04T17:20:02.814Z,3.42
2022-08-04T17:22:49.099Z,3.60
2022-08-04T17:25:51.497Z,5.25
2022-08-04T17:28:47.396Z,3.92
2022-08-04T17:31:36.635Z,3.58
2022-08-04T17:34:26.492Z,6.07
2022-08-04T17:40:25.503Z,4.38
2022-08-04T17:44:04.185Z,4.90
2022-08-04T17:46:30.939Z,4.32
2022-08-04T17:49:22.576Z,3.50
2022-08-04T17:52:32.356Z,6.57
2022-08-04T17:55:40.062Z,13.13
2022-08-04T17:58:27.131Z,6.50
2022-08-04T18:01:28.535Z,6.28
2022-08-04T18:04:27.607Z,5.28
2022-08-04T18:08:35.108Z,4.13
2022-08-04T18:10:30.654Z,4.47
2022-08-04T18:13:22.251Z,4.32
2022-08-04T18:16:21.770Z,4.05
2022-08-04T18:19:14.591Z,4.38
2022-08-04T18:22:03.170Z,3.60
2022-08-04T18:24:55.564Z,5.43
2022-08-04T18:27:55.767Z,4.30
2022-08-04T18:30:55.011Z,6.03
2022-08-04T18:33:42.139Z,4.30
2022-08-04T18:36:34.973Z,3.80
2022-08-04T18:40:25.229Z,3.70
2022-08-04T18:42:37.427Z,4.40
2022-08-04T18:45:34.293Z,3.97
2022-08-04T18:48:20.837Z,3.83
2022-08-04T18:51:22.251Z,3.67
2022-08-04T18:54:09.330Z,3.93
2022-08-04T18:57:24.593Z,3.80
2022-08-04T19:00:01.994Z,3.90
2022-08-04T19:02:49.807Z,5.23
2022-08-04T19:05:38.051Z,4.13
2022-08-04T19:08:34.452Z,4.00
2022-08-04T19:11:38.551Z,4.43
2022-08-04T19:14:27.138Z,4.30
2022-08-04T19:17:12.948Z,4.07
2022-08-04T19:20:00.025Z,4.60
2022-08-04T19:24:28.761Z,5.23
2022-08-04T19:26:01.221Z,4.80
2022-08-04T19:28:49.870Z,5.00
2022-08-04T19:31:41.517Z,4.03
2022-08-04T19:34:34.642Z,4.30
2022-08-04T19:37:56.632Z,4.40
2022-08-04T19:40:33.765Z,4.30
2022-08-04T19:43:22.949Z,4.50
2022-08-04T19:46:09.216Z,4.37
2022-08-04T19:48:59.884Z,4.17
2022-08-04T19:51:49.351Z,4.80
2022-08-04T19:54:37.152Z,4.80
2022-08-04T19:57:35.745Z,4.10
2022-08-04T20:00:32.933Z,4.17
2022-08-04T20:03:20.415Z,4.57
2022-08-04T20:06:06.655Z,5.80
2022-08-04T20:08:56.056Z,5.10
2022-08-04T20:11:43.172Z,4.83
2022-08-04T20:14:32.376Z,5.20
2022-08-04T20:17:18.559Z,4.67
2022-08-04T20:20:05.469Z,4.50
2022-08-04T20:22:54.440Z,4.80
2022-08-04T20:25:40.376Z,4.30
2022-08-04T20:28:36.735Z,4.93
2022-08-04T20:31:22.745Z,4.70
2022-08-04T20:34:18.728Z,3.90
2022-08-04T20:37:04.556Z,4.00
2022-08-04T20:39:58.000Z,4.60
2022-08-04T20:42:46.271Z,4.07
2022-08-04T20:45:56.505Z,4.00
2022-08-04T20:48:39.124Z,4.60
2022-08-04T20:51:33.318Z,3.90
2022-08-04T20:54:22.990Z,4.07
2022-08-04T20:57:12.851Z,4.00
2022-08-04T21:00:02.619Z,4.30
2022-08-04T21:02:49.745Z,4.87
2022-08-04T21:05:36.303Z,4.17
2022-08-04T21:08:21.837Z,4.00
2022-08-04T21:11:13.540Z,4.43
2022-08-04T21:14:03.029Z,4.70
2022-08-04T21:16:55.204Z,4.23
2022-08-04T21:19:42.065Z,3.97
2022-08-04T21:22:33.453Z,4.73
2022-08-04T21:25:23.261Z,4.20
2022-08-04T21:28:09.557Z,4.03
2022-08-04T21:30:55.781Z,4.60
2022-08-04T21:33:50.952Z,4.73
2022-08-04T21:36:38.093Z,4.60
2022-08-04T21:39:24.727Z,4.60
2022-08-04T21:42:28.333Z,4.70
2022-08-04T21:45:19.256Z,5.20
2022-08-04T21:48:05.310Z,5.47
2022-08-04T21:50:51.331Z,4.80
2022-08-04T21:53:37.024Z,4.80
2022-08-04T21:56:26.600Z,5.57
2022-08-04T21:59:14.791Z,5.07
2022-08-04T22:02:01.850Z,5.73
2022-08-04T22:04:49.535Z,5.90
2022-08-04T22:07:50.250Z,5.40
2022-08-04T22:10:37.950Z,4.93
2022-08-04T22:13:24.034Z,4.80
2022-08-04T22:16:30.325Z,4.70
2022-08-04T22:19:16.192Z,4.70
2022-08-04T22:22:12.630Z,4.70
2022-08-04T22:28:07.888Z,5.30
2022-08-04T22:30:54.768Z,4.70
2022-08-04T22:33:55.123Z,4.57
2022-08-04T22:36:41.869Z,4.57
2022-08-04T22:39:27.939Z,4.77
2022-08-04T22:42:15.396Z,4.53
2022-08-04T22:45:02.243Z,4.40
2022-08-04T22:47:53.436Z,5.10
2022-08-04T22:50:40.057Z,5.07
2022-08-04T22:53:25.891Z,6.00
2022-08-04T22:56:11.754Z,4.53
2022-08-04T22:58:57.686Z,10.47
2022-08-04T23:02:00.364Z,4.90
2022-08-04T23:04:54.098Z,5.43
2022-08-04T23:07:49.197Z,5.07
2022-08-04T23:10:35.960Z,4.80
2022-08-04T23:13:22.612Z,5.23
2022-08-04T23:16:10.411Z,5.10
2022-08-04T23:18:57.001Z,4.50
2022-08-04T23:21:47.484Z,4.77
2022-08-04T23:24:35.081Z,5.13
2022-08-04T23:27:23.484Z,5.20
2022-08-04T23:30:12.359Z,5.40
2022-08-04T23:32:59.752Z,5.17
2022-08-04T23:35:45.849Z,5.60
2022-08-04T23:38:36.035Z,5.23
2022-08-04T23:41:25.917Z,5.20
2022-08-04T23:44:31.754Z,4.90
2022-08-04T23:48:15.267Z,5.00
2022-08-04T23:50:23.928Z,5.20
2022-08-04T23:53:09.739Z,5.37
2022-08-04T23:56:19.560Z,6.40
2022-08-04T23:59:06.187Z,5.20
